createdAt,value
2019-04-10T15:51:08.822Z,47.23
2019-04-10T15:53:38.434Z,49.65
2019-04-10T15:56:09.652Z,48.35
2019-04-10T15:58:42.011Z,50.05
2019-04-10T16:01:16.002Z,48.92
2019-04-10T16:03:47.175Z,49.23
2019-04-10T16:06:17.477Z,48.83
2019-04-10T16:08:48.280Z,51.25
2019-04-10T16:11:41.719Z,49.88
2019-04-10T16:14:22.041Z,50.12
2019-04-10T16:17:15.168Z,51.18
2019-04-10T16:20:11.334Z,51.05
2019-04-10T16:22:48.663Z,52.08
2019-04-10T16:25:24.036Z,53.70
2019-04-10T16:27:54.093Z,53.87
2019-04-10T16:30:26.292Z,54.20
2019-04-10T16:32:56.562Z,52.45
2019-04-10T16:35:27.699Z,52.65
2019-04-10T16:37:58.163Z,54.65
2019-04-10T16:40:27.960Z,52.88
2019-04-10T16:42:57.908Z,53.17
2019-04-10T16:45:38.675Z,57.20
2019-04-10T16:48:08.715Z,55.48
2019-04-10T16:50:39.723Z,56.30
2019-04-10T16:53:10.376Z,56.33
2019-04-10T16:55:41.018Z,50.35
2019-04-10T16:58:11.866Z,49.65
2019-04-10T17:00:41.833Z,50.10
2019-04-10T17:03:11.807Z,50.60
2019-04-10T17:05:48.001Z,52.75
2019-04-10T17:08:17.763Z,53.23
2019-04-10T17:10:48.286Z,53.05
2019-04-10T17:13:18.325Z,56.40
2019-04-10T17:15:55.493Z,56.47
2019-04-10T17:18:27.474Z,56.15
2019-04-10T17:23:46.877Z,56.18
2019-04-10T17:26:17.160Z,55.28
2019-04-10T17:28:48.300Z,56.20
2019-04-10T17:31:18.394Z,56.28
2019-04-10T17:33:48.143Z,56.45
2019-04-10T17:36:18.913Z,57.53
2019-04-10T17:41:19.673Z,58.48
2019-04-10T17:43:54.711Z,55.35
2019-04-10T17:46:26.937Z,54.95
2019-04-10T17:48:56.964Z,57.83
2019-04-10T17:51:28.179Z,58.00
2019-04-10T17:53:58.235Z,60.88
2019-04-10T17:56:28.351Z,62.10
2019-04-10T17:58:58.728Z,62.73
2019-04-10T18:01:30.138Z,59.25
2019-04-10T18:04:03.142Z,59.08
2019-04-10T18:06:31.802Z,61.10
2019-04-10T18:09:07.630Z,58.23
2019-04-10T18:11:39.493Z,56.30
2019-04-10T18:14:11.046Z,56.48
2019-04-10T18:16:44.299Z,60.67
2019-04-10T18:19:30.358Z,60.92
2019-04-10T18:22:22.579Z,56.20
2019-04-10T18:24:55.798Z,58.33
2019-04-10T18:27:38.631Z,59.38
2019-04-10T18:30:19.966Z,59.38
2019-04-10T18:32:54.029Z,59.90
2019-04-10T18:35:36.827Z,62.40
2019-04-10T18:38:08.946Z,59.75
2019-04-10T18:40:52.279Z,58.95
2019-04-10T18:43:14.308Z,59.42
2019-04-10T18:45:57.496Z,59.38
2019-04-10T18:48:21.342Z,58.38
2019-04-10T18:50:51.646Z,60.83
2019-04-10T18:53:24.687Z,58.83
2019-04-10T18:55:56.672Z,57.20
2019-04-10T18:58:30.127Z,60.05
2019-04-10T19:01:31.751Z,57.83
2019-04-10T19:04:14.034Z,66.87
2019-04-10T19:06:57.158Z,60.33
2019-04-10T19:09:42.883Z,61.15
2019-04-10T19:12:36.861Z,58.73
2019-04-10T19:15:09.113Z,57.08
2019-04-10T19:17:55.296Z,58.45
2019-04-10T19:20:29.101Z,58.95
2019-04-10T19:23:00.984Z,58.92
2019-04-10T19:25:34.501Z,60.25
2019-04-10T19:28:06.570Z,58.58
2019-04-10T19:30:45.552Z,57.78
2019-04-10T19:33:16.909Z,60.25
2019-04-10T19:35:47.566Z,61.37
2019-04-10T19:38:19.003Z,59.75
2019-04-10T19:40:52.105Z,59.38
2019-04-10T19:43:33.256Z,58.13
2019-04-10T19:46:06.217Z,60.28
2019-04-10T19:48:37.571Z,60.90
2019-04-10T19:51:21.769Z,60.28
2019-04-10T19:53:54.364Z,59.58
2019-04-10T19:56:26.741Z,62.13
2019-04-10T19:58:59.297Z,58.80
2019-04-10T20:01:31.236Z,62.33
2019-04-10T20:04:02.063Z,59.03
2019-04-10T20:06:34.227Z,60.70
2019-04-10T20:09:06.391Z,61.15
2019-04-10T20:11:40.309Z,61.88
2019-04-10T20:14:08.412Z,65.90
2019-04-10T20:16:39.270Z,63.00
2019-04-10T20:21:45.154Z,60.78
2019-04-10T20:24:15.199Z,61.70
2019-04-10T20:26:47.541Z,59.80
2019-04-10T20:29:19.900Z,62.90
2019-04-10T20:31:53.333Z,60.92
2019-04-10T20:34:24.264Z,59.25
2019-04-10T20:37:12.945Z,60.80
2019-04-10T20:40:07.512Z,60.98
2019-04-10T20:42:40.354Z,62.45
2019-04-10T20:45:14.207Z,63.30
2019-04-10T20:47:49.836Z,65.32
2019-04-10T20:50:21.709Z,63.78
2019-04-10T20:52:51.584Z,61.98
2019-04-10T20:55:21.615Z,60.52
2019-04-10T20:57:52.074Z,62.07
2019-04-10T21:00:30.738Z,61.20
2019-04-10T21:03:02.751Z,63.45
2019-04-10T21:05:42.359Z,63.15
2019-04-10T21:08:12.631Z,63.23
2019-04-10T21:10:45.018Z,61.70
2019-04-10T21:13:17.131Z,61.42
2019-04-10T21:15:51.564Z,62.50
2019-04-10T21:18:27.575Z,61.80
2019-04-10T21:20:57.665Z,63.40
2019-04-10T21:23:27.384Z,60.23
2019-04-10T21:25:57.432Z,60.10
2019-04-10T21:28:28.301Z,63.40
2019-04-10T21:31:23.605Z,62.00
2019-04-10T21:34:19.720Z,62.48
2019-04-10T21:36:49.613Z,62.73
2019-04-10T21:39:19.308Z,62.58
2019-04-10T21:41:49.150Z,61.70
2019-04-10T21:44:18.880Z,63.73
2019-04-10T21:46:48.688Z,62.55
2019-04-10T21:49:18.452Z,62.80
2019-04-10T21:51:48.109Z,64.00
2019-04-10T21:54:18.489Z,64.80
2019-04-10T21:56:53.431Z,61.90
2019-04-10T21:59:26.771Z,61.75
2019-04-10T22:01:57.036Z,61.68
2019-04-10T22:04:34.923Z,65.85
2019-04-10T22:07:23.829Z,61.90
2019-04-10T22:10:21.456Z,62.95
2019-04-10T22:12:52.645Z,62.60
2019-04-10T22:15:53.711Z,63.95
2019-04-10T22:18:23.752Z,62.17
2019-04-10T22:20:54.176Z,60.80
2019-04-10T22:23:24.511Z,63.90
2019-04-10T22:25:54.299Z,63.40
2019-04-10T22:28:25.362Z,63.83
2019-04-10T22:30:55.339Z,63.13
2019-04-10T22:33:25.030Z,62.33
2019-04-10T22:35:55.930Z,63.95
2019-04-10T22:38:27.276Z,60.80
2019-04-10T22:40:58.122Z,63.83
2019-04-10T22:43:28.246Z,62.30
2019-04-10T22:45:57.990Z,63.28
2019-04-10T22:48:28.687Z,60.88
2019-04-10T22:54:08.119Z,62.43
2019-04-10T22:56:38.230Z,60.95
2019-04-10T22:59:08.181Z,61.07
2019-04-10T23:01:38.203Z,61.98
2019-04-10T23:04:08.010Z,61.27
2019-04-10T23:06:37.839Z,60.93
2019-04-10T23:09:08.915Z,62.33
2019-04-10T23:11:42.214Z,61.15
2019-04-10T23:14:10.276Z,58.23
2019-04-10T23:16:40.111Z,60.25
2019-04-10T23:19:09.959Z,61.13
2019-04-10T23:21:40.762Z,61.10
2019-04-10T23:26:39.865Z,61.02
2019-04-10T23:29:09.497Z,58.75
2019-04-10T23:31:39.526Z,60.38
2019-04-10T23:34:09.478Z,58.85
2019-04-10T23:36:40.304Z,58.65
2019-04-10T23:41:40.017Z,58.02
2019-04-10T23:44:11.003Z,57.75
2019-04-10T23:46:40.880Z,57.33
2019-04-10T23:49:11.152Z,55.83
2019-04-10T23:51:40.747Z,56.92
2019-04-10T23:54:11.162Z,57.30
2019-04-10T23:56:41.936Z,56.18
2019-04-10T23:59:12.708Z,56.68
